sensor_id;sensor_type;location;lat;lon;timestamp;P1;durP1;ratioP1;P2;durP2;ratioP2
45936;SDS011;31649;46.510;6.498;2022-07-04T00:02:24;5.82;;;2.28;;
45936;SDS011;31649;46.510;6.498;2022-07-04T00:04:49;8.20;;;2.67;;
45936;SDS011;31649;46.510;6.498;2022-07-04T00:07:15;5.13;;;2.40;;
45936;SDS011;31649;46.510;6.498;2022-07-04T00:09:40;5.47;;;2.10;;
45936;SDS011;31649;46.510;6.498;2022-07-04T00:12:06;8.25;;;2.20;;
45936;SDS011;31649;46.510;6.498;2022-07-04T00:14:31;8.10;;;2.20;;
45936;SDS011;31649;46.510;6.498;2022-07-04T00:16:57;6.22;;;1.92;;
45936;SDS011;31649;46.510;6.498;2022-07-04T00:19:22;4.43;;;2.05;;
45936;SDS011;31649;46.510;6.498;2022-07-04T00:21:47;2.28;;;1.63;;
45936;SDS011;31649;46.510;6.498;2022-07-04T00:24:13;6.68;;;2.75;;
45936;SDS011;31649;46.510;6.498;2022-07-04T00:26:38;5.93;;;2.33;;
45936;SDS011;31649;46.510;6.498;2022-07-04T00:29:03;9.30;;;2.30;;
45936;SDS011;31649;46.510;6.498;2022-07-04T00:31:29;3.65;;;2.30;;
45936;SDS011;31649;46.510;6.498;2022-07-04T00:33:54;4.40;;;2.45;;
45936;SDS011;31649;46.510;6.498;2022-07-04T00:36:19;4.57;;;2.08;;
45936;SDS011;31649;46.510;6.498;2022-07-04T00:38:45;8.82;;;2.10;;
45936;SDS011;31649;46.510;6.498;2022-07-04T00:41:10;2.90;;;1.80;;
45936;SDS011;31649;46.510;6.498;2022-07-04T00:43:35;3.45;;;2.67;;
45936;SDS011;31649;46.510;6.498;2022-07-04T00:46:04;6.57;;;2.33;;
45936;SDS011;31649;46.510;6.498;2022-07-04T00:48:31;8.40;;;2.63;;
45936;SDS011;31649;46.510;6.498;2022-07-04T00:50:56;4.40;;;2.33;;
45936;SDS011;31649;46.510;6.498;2022-07-04T00:53:23;7.95;;;2.20;;
45936;SDS011;31649;46.510;6.498;2022-07-04T00:55:52;5.40;;;2.08;;
45936;SDS011;31649;46.510;6.498;2022-07-04T00:58:21;2.47;;;2.03;;
45936;SDS011;31649;46.510;6.498;2022-07-04T01:00:47;2.30;;;1.88;;
45936;SDS011;31649;46.510;6.498;2022-07-04T01:03:14;4.38;;;2.00;;
45936;SDS011;31649;46.510;6.498;2022-07-04T01:05:39;8.45;;;2.08;;
45936;SDS011;31649;46.510;6.498;2022-07-04T01:08:05;6.13;;;1.85;;
45936;SDS011;31649;46.510;6.498;2022-07-04T01:10:31;2.08;;;1.48;;
45936;SDS011;31649;46.510;6.498;2022-07-04T01:12:56;3.60;;;1.80;;
45936;SDS011;31649;46.510;6.498;2022-07-04T01:15:22;3.03;;;1.63;;
45936;SDS011;31649;46.510;6.498;2022-07-04T01:17:48;2.72;;;1.70;;
45936;SDS011;31649;46.510;6.498;2022-07-04T01:20:14;4.15;;;1.98;;
45936;SDS011;31649;46.510;6.498;2022-07-04T01:22:40;4.43;;;1.80;;
45936;SDS011;31649;46.510;6.498;2022-07-04T01:25:06;11.88;;;2.13;;
45936;SDS011;31649;46.510;6.498;2022-07-04T01:27:32;6.80;;;2.53;;
45936;SDS011;31649;46.510;6.498;2022-07-04T01:29:58;4.32;;;1.80;;
45936;SDS011;31649;46.510;6.498;2022-07-04T01:32:23;4.43;;;1.58;;
45936;SDS011;31649;46.510;6.498;2022-07-04T01:34:49;6.40;;;1.60;;
45936;SDS011;31649;46.510;6.498;2022-07-04T01:37:14;6.78;;;1.90;;
45936;SDS011;31649;46.510;6.498;2022-07-04T01:39:40;3.28;;;1.75;;
45936;SDS011;31649;46.510;6.498;2022-07-04T01:42:05;2.05;;;1.33;;
45936;SDS011;31649;46.510;6.498;2022-07-04T01:44:31;3.92;;;2.00;;
45936;SDS011;31649;46.510;6.498;2022-07-04T01:46:57;2.45;;;1.60;;
45936;SDS011;31649;46.510;6.498;2022-07-04T01:49:22;4.68;;;1.83;;
45936;SDS011;31649;46.510;6.498;2022-07-04T01:51:48;2.88;;;2.05;;
45936;SDS011;31649;46.510;6.498;2022-07-04T01:54:15;7.13;;;1.60;;
45936;SDS011;31649;46.510;6.498;2022-07-04T01:56:40;1.95;;;1.48;;
45936;SDS011;31649;46.510;6.498;2022-07-04T01:59:06;3.22;;;1.50;;
45936;SDS011;31649;46.510;6.498;2022-07-04T02:01:31;2.72;;;1.60;;
45936;SDS011;31649;46.510;6.498;2022-07-04T02:03:57;5.32;;;1.95;;
45936;SDS011;31649;46.510;6.498;2022-07-04T02:06:24;4.82;;;1.83;;
45936;SDS011;31649;46.510;6.498;2022-07-04T02:08:50;2.78;;;1.58;;
45936;SDS011;31649;46.510;6.498;2022-07-04T02:14:18;3.63;;;1.98;;
45936;SDS011;31649;46.510;6.498;2022-07-04T02:16:43;3.47;;;1.70;;
45936;SDS011;31649;46.510;6.498;2022-07-04T02:19:09;4.40;;;1.80;;
45936;SDS011;31649;46.510;6.498;2022-07-04T02:21:34;2.28;;;1.40;;
45936;SDS011;31649;46.510;6.498;2022-07-04T02:24:00;3.90;;;1.60;;
45936;SDS011;31649;46.510;6.498;2022-07-04T02:26:25;4.25;;;1.83;;
45936;SDS011;31649;46.510;6.498;2022-07-04T02:28:51;5.40;;;2.00;;
45936;SDS011;31649;46.510;6.498;2022-07-04T02:31:17;13.13;;;2.83;;
45936;SDS011;31649;46.510;6.498;2022-07-04T02:33:42;4.22;;;1.77;;
45936;SDS011;31649;46.510;6.498;2022-07-04T02:36:08;6.10;;;2.75;;
45936;SDS011;31649;46.510;6.498;2022-07-04T02:38:33;5.53;;;2.20;;
45936;SDS011;31649;46.510;6.498;2022-07-04T02:40:59;3.72;;;2.03;;
45936;SDS011;31649;46.510;6.498;2022-07-04T02:43:24;7.43;;;2.30;;
45936;SDS011;31649;46.510;6.498;2022-07-04T02:45:49;6.47;;;3.15;;
45936;SDS011;31649;46.510;6.498;2022-07-04T02:48:15;8.38;;;2.95;;
45936;SDS011;31649;46.510;6.498;2022-07-04T02:50:40;4.47;;;2.28;;
45936;SDS011;31649;46.510;6.498;2022-07-04T02:53:05;8.70;;;2.33;;
45936;SDS011;31649;46.510;6.498;2022-07-04T02:55:31;6.47;;;2.63;;
45936;SDS011;31649;46.510;6.498;2022-07-04T02:57:56;5.95;;;2.25;;
45936;SDS011;31649;46.510;6.498;2022-07-04T03:00:21;2.97;;;1.70;;
45936;SDS011;31649;46.510;6.498;2022-07-04T03:02:47;5.07;;;1.80;;
45936;SDS011;31649;46.510;6.498;2022-07-04T03:05:12;2.85;;;1.75;;
45936;SDS011;31649;46.510;6.498;2022-07-04T03:07:38;8.73;;;2.25;;
45936;SDS011;31649;46.510;6.498;2022-07-04T03:10:03;5.38;;;2.45;;
45936;SDS011;31649;46.510;6.498;2022-07-04T03:12:29;4.68;;;2.40;;
45936;SDS011;31649;46.510;6.498;2022-07-04T03:14:54;8.52;;;1.92;;
45936;SDS011;31649;46.510;6.498;2022-07-04T03:17:20;2.20;;;2.00;;
45936;SDS011;31649;46.510;6.498;2022-07-04T03:19:45;3.92;;;2.13;;
45936;SDS011;31649;46.510;6.498;2022-07-04T03:22:10;3.33;;;1.95;;
45936;SDS011;31649;46.510;6.498;2022-07-04T03:24:36;4.50;;;1.83;;
45936;SDS011;31649;46.510;6.498;2022-07-04T03:27:01;3.90;;;2.17;;
45936;SDS011;31649;46.510;6.498;2022-07-04T03:29:27;2.25;;;2.08;;
45936;SDS011;31649;46.510;6.498;2022-07-04T03:31:52;7.22;;;2.15;;
45936;SDS011;31649;46.510;6.498;2022-07-04T03:34:17;3.65;;;2.00;;
45936;SDS011;31649;46.510;6.498;2022-07-04T03:36:43;3.25;;;1.77;;
45936;SDS011;31649;46.510;6.498;2022-07-04T03:39:08;3.70;;;1.85;;
45936;SDS011;31649;46.510;6.498;2022-07-04T03:41:33;4.88;;;1.77;;
45936;SDS011;31649;46.510;6.498;2022-07-04T03:43:59;3.10;;;1.90;;
45936;SDS011;31649;46.510;6.498;2022-07-04T03:46:24;2.42;;;1.67;;
45936;SDS011;31649;46.510;6.498;2022-07-04T03:48:50;5.53;;;1.88;;
45936;SDS011;31649;46.510;6.498;2022-07-04T03:51:15;3.45;;;1.92;;
45936;SDS011;31649;46.510;6.498;2022-07-04T03:53:41;2.95;;;1.83;;
45936;SDS011;31649;46.510;6.498;2022-07-04T03:56:07;7.20;;;2.28;;
45936;SDS011;31649;46.510;6.498;2022-07-04T03:58:33;4.88;;;2.10;;
45936;SDS011;31649;46.510;6.498;2022-07-04T04:00:59;6.78;;;1.80;;
45936;SDS011;31649;46.510;6.498;2022-07-04T04:03:24;2.22;;;1.52;;
45936;SDS011;31649;46.510;6.498;2022-07-04T04:06:08;3.47;;;2.72;;
45936;SDS011;31649;46.510;6.498;2022-07-04T04:08:34;3.42;;;1.80;;
45936;SDS011;31649;46.510;6.498;2022-07-04T04:10:59;5.20;;;1.75;;
45936;SDS011;31649;46.510;6.498;2022-07-04T04:13:25;8.57;;;2.20;;
45936;SDS011;31649;46.510;6.498;2022-07-04T04:15:50;1.73;;;1.58;;
45936;SDS011;31649;46.510;6.498;2022-07-04T04:18:15;3.47;;;3.03;;
45936;SDS011;31649;46.510;6.498;2022-07-04T04:20:41;6.57;;;2.00;;
45936;SDS011;31649;46.510;6.498;2022-07-04T04:23:06;3.65;;;1.92;;
45936;SDS011;31649;46.510;6.498;2022-07-04T04:25:32;8.00;;;2.17;;
45936;SDS011;31649;46.510;6.498;2022-07-04T04:27:57;3.53;;;2.47;;
45936;SDS011;31649;46.510;6.498;2022-07-04T04:30:22;6.63;;;3.50;;
45936;SDS011;31649;46.510;6.498;2022-07-04T04:32:48;4.90;;;3.20;;
45936;SDS011;31649;46.510;6.498;2022-07-04T04:35:13;6.03;;;2.83;;
45936;SDS011;31649;46.510;6.498;2022-07-04T04:37:38;3.13;;;2.00;;
45936;SDS011;31649;46.510;6.498;2022-07-04T04:40:04;6.13;;;2.30;;
45936;SDS011;31649;46.510;6.498;2022-07-04T04:42:30;3.90;;;2.10;;
45936;SDS011;31649;46.510;6.498;2022-07-04T04:44:55;2.67;;;2.17;;
45936;SDS011;31649;46.510;6.498;2022-07-04T04:47:21;7.13;;;2.15;;
45936;SDS011;31649;46.510;6.498;2022-07-04T04:49:47;4.32;;;2.03;;
45936;SDS011;31649;46.510;6.498;2022-07-04T04:52:12;3.72;;;1.73;;
45936;SDS011;31649;46.510;6.498;2022-07-04T04:54:38;3.95;;;2.10;;
45936;SDS011;31649;46.510;6.498;2022-07-04T04:57:03;3.58;;;1.88;;
45936;SDS011;31649;46.510;6.498;2022-07-04T04:59:29;4.40;;;2.25;;
45936;SDS011;31649;46.510;6.498;2022-07-04T05:01:56;3.08;;;1.58;;
45936;SDS011;31649;46.510;6.498;2022-07-04T05:04:21;5.72;;;2.30;;
45936;SDS011;31649;46.510;6.498;2022-07-04T05:06:47;2.53;;;2.10;;
45936;SDS011;31649;46.510;6.498;2022-07-04T05:09:12;3.63;;;2.47;;
45936;SDS011;31649;46.510;6.498;2022-07-04T05:11:37;4.93;;;1.80;;
45936;SDS011;31649;46.510;6.498;2022-07-04T05:14:03;3.03;;;2.15;;
45936;SDS011;31649;46.510;6.498;2022-07-04T05:16:28;3.03;;;2.30;;
45936;SDS011;31649;46.510;6.498;2022-07-04T05:18:54;2.97;;;1.98;;
45936;SDS011;31649;46.510;6.498;2022-07-04T05:21:19;2.95;;;2.05;;
45936;SDS011;31649;46.510;6.498;2022-07-04T05:23:44;5.35;;;2.38;;
45936;SDS011;31649;46.510;6.498;2022-07-04T05:26:10;2.70;;;2.08;;
45936;SDS011;31649;46.510;6.498;2022-07-04T05:28:35;2.97;;;2.30;;
45936;SDS011;31649;46.510;6.498;2022-07-04T05:31:00;4.22;;;2.45;;
45936;SDS011;31649;46.510;6.498;2022-07-04T05:33:26;4.03;;;1.80;;
45936;SDS011;31649;46.510;6.498;2022-07-04T05:35:51;5.03;;;2.33;;
45936;SDS011;31649;46.510;6.498;2022-07-04T05:38:16;7.50;;;3.53;;
45936;SDS011;31649;46.510;6.498;2022-07-04T05:40:43;4.70;;;2.60;;
45936;SDS011;31649;46.510;6.498;2022-07-04T05:43:08;3.55;;;2.50;;
45936;SDS011;31649;46.510;6.498;2022-07-04T05:45:35;2.80;;;1.95;;
45936;SDS011;31649;46.510;6.498;2022-07-04T05:48:00;5.05;;;2.20;;
45936;SDS011;31649;46.510;6.498;2022-07-04T05:50:26;5.05;;;2.33;;
45936;SDS011;31649;46.510;6.498;2022-07-04T05:52:51;7.15;;;2.25;;
45936;SDS011;31649;46.510;6.498;2022-07-04T05:55:16;2.95;;;2.25;;
45936;SDS011;31649;46.510;6.498;2022-07-04T05:57:42;6.93;;;3.40;;
45936;SDS011;31649;46.510;6.498;2022-07-04T06:00:07;4.40;;;1.70;;
45936;SDS011;31649;46.510;6.498;2022-07-04T06:02:33;3.83;;;1.92;;
45936;SDS011;31649;46.510;6.498;2022-07-04T06:04:58;4.32;;;1.92;;
45936;SDS011;31649;46.510;6.498;2022-07-04T06:07:24;6.07;;;1.70;;
45936;SDS011;31649;46.510;6.498;2022-07-04T06:09:49;3.65;;;2.17;;
45936;SDS011;31649;46.510;6.498;2022-07-04T06:12:15;5.30;;;1.80;;
45936;SDS011;31649;46.510;6.498;2022-07-04T06:14:40;3.70;;;1.92;;
45936;SDS011;31649;46.510;6.498;2022-07-04T06:17:06;2.22;;;2.00;;
45936;SDS011;31649;46.510;6.498;2022-07-04T06:19:31;3.38;;;2.20;;
45936;SDS011;31649;46.510;6.498;2022-07-04T06:21:56;3.55;;;1.73;;
45936;SDS011;31649;46.510;6.498;2022-07-04T06:24:22;5.30;;;1.90;;
45936;SDS011;31649;46.510;6.498;2022-07-04T06:26:48;2.30;;;1.90;;
45936;SDS011;31649;46.510;6.498;2022-07-04T06:29:13;5.90;;;2.33;;
45936;SDS011;31649;46.510;6.498;2022-07-04T06:31:38;2.50;;;2.10;;
45936;SDS011;31649;46.510;6.498;2022-07-04T06:34:04;4.25;;;2.42;;
45936;SDS011;31649;46.510;6.498;2022-07-04T06:36:48;5.00;;;2.30;;
45936;SDS011;31649;46.510;6.498;2022-07-04T06:39:13;6.03;;;2.25;;
45936;SDS011;31649;46.510;6.498;2022-07-04T06:41:38;8.65;;;3.35;;
45936;SDS011;31649;46.510;6.498;2022-07-04T06:44:04;6.50;;;1.95;;
45936;SDS011;31649;46.510;6.498;2022-07-04T06:46:30;4.30;;;2.08;;
45936;SDS011;31649;46.510;6.498;2022-07-04T06:48:55;3.35;;;2.40;;
45936;SDS011;31649;46.510;6.498;2022-07-04T06:51:21;2.92;;;2.22;;
45936;SDS011;31649;46.510;6.498;2022-07-04T06:53:46;3.97;;;2.28;;
45936;SDS011;31649;46.510;6.498;2022-07-04T06:56:12;5.00;;;2.25;;
45936;SDS011;31649;46.510;6.498;2022-07-04T06:58:37;5.38;;;2.80;;
45936;SDS011;31649;46.510;6.498;2022-07-04T07:01:03;2.33;;;2.00;;
45936;SDS011;31649;46.510;6.498;2022-07-04T07:03:28;4.07;;;2.00;;
45936;SDS011;31649;46.510;6.498;2022-07-04T07:05:54;6.22;;;2.42;;
45936;SDS011;31649;46.510;6.498;2022-07-04T07:08:21;3.83;;;1.92;;
45936;SDS011;31649;46.510;6.498;2022-07-04T07:10:46;7.72;;;2.45;;
45936;SDS011;31649;46.510;6.498;2022-07-04T07:13:12;4.15;;;2.53;;
45936;SDS011;31649;46.510;6.498;2022-07-04T07:15:37;2.30;;;2.10;;
45936;SDS011;31649;46.510;6.498;2022-07-04T07:18:03;5.78;;;2.10;;
45936;SDS011;31649;46.510;6.498;2022-07-04T07:20:29;6.15;;;2.15;;
45936;SDS011;31649;46.510;6.498;2022-07-04T07:22:54;3.47;;;2.38;;
45936;SDS011;31649;46.510;6.498;2022-07-04T07:25:19;7.20;;;2.00;;
45936;SDS011;31649;46.510;6.498;2022-07-04T07:27:45;6.95;;;2.30;;
45936;SDS011;31649;46.510;6.498;2022-07-04T07:30:10;5.20;;;2.47;;
45936;SDS011;31649;46.510;6.498;2022-07-04T07:32:36;4.65;;;2.60;;
45936;SDS011;31649;46.510;6.498;2022-07-04T07:35:01;8.35;;;2.70;;
45936;SDS011;31649;46.510;6.498;2022-07-04T07:37:27;4.38;;;2.22;;
45936;SDS011;31649;46.510;6.498;2022-07-04T07:39:52;8.35;;;2.65;;
45936;SDS011;31649;46.510;6.498;2022-07-04T07:42:18;4.05;;;1.98;;
45936;SDS011;31649;46.510;6.498;2022-07-04T07:44:43;5.72;;;2.40;;
45936;SDS011;31649;46.510;6.498;2022-07-04T07:47:12;5.35;;;2.63;;
45936;SDS011;31649;46.510;6.498;2022-07-04T07:49:38;7.88;;;2.22;;
45936;SDS011;31649;46.510;6.498;2022-07-04T07:52:04;4.65;;;2.20;;
45936;SDS011;31649;46.510;6.498;2022-07-04T07:54:29;6.30;;;2.80;;
45936;SDS011;31649;46.510;6.498;2022-07-04T07:56:54;6.82;;;2.20;;
45936;SDS011;31649;46.510;6.498;2022-07-04T07:59:20;3.10;;;2.50;;
45936;SDS011;31649;46.510;6.498;2022-07-04T08:01:45;6.05;;;2.65;;
45936;SDS011;31649;46.510;6.498;2022-07-04T08:04:11;3.80;;;2.33;;
45936;SDS011;31649;46.510;6.498;2022-07-04T08:06:54;4.90;;;2.65;;
45936;SDS011;31649;46.510;6.498;2022-07-04T08:09:20;7.80;;;2.72;;
45936;SDS011;31649;46.510;6.498;2022-07-04T08:11:45;3.53;;;1.60;;
45936;SDS011;31649;46.510;6.498;2022-07-04T08:14:10;4.15;;;2.03;;
45936;SDS011;31649;46.510;6.498;2022-07-04T08:16:36;4.72;;;2.13;;
45936;SDS011;31649;46.510;6.498;2022-07-04T08:19:02;4.93;;;2.10;;
45936;SDS011;31649;46.510;6.498;2022-07-04T08:21:28;6.68;;;2.15;;
45936;SDS011;31649;46.510;6.498;2022-07-04T08:23:53;6.03;;;2.75;;
45936;SDS011;31649;46.510;6.498;2022-07-04T08:26:19;4.65;;;2.08;;
45936;SDS011;31649;46.510;6.498;2022-07-04T08:28:44;5.82;;;2.35;;
45936;SDS011;31649;46.510;6.498;2022-07-04T08:31:10;4.28;;;2.30;;
45936;SDS011;31649;46.510;6.498;2022-07-04T08:33:36;3.80;;;1.80;;
45936;SDS011;31649;46.510;6.498;2022-07-04T08:36:02;4.93;;;1.90;;
45936;SDS011;31649;46.510;6.498;2022-07-04T08:38:28;2.05;;;1.85;;
45936;SDS011;31649;46.510;6.498;2022-07-04T08:40:55;4.03;;;2.45;;
45936;SDS011;31649;46.510;6.498;2022-07-04T08:43:22;5.13;;;1.98;;
45936;SDS011;31649;46.510;6.498;2022-07-04T08:45:49;3.63;;;2.05;;
45936;SDS011;31649;46.510;6.498;2022-07-04T08:48:17;6.80;;;2.78;;
45936;SDS011;31649;46.510;6.498;2022-07-04T08:50:49;2.60;;;2.00;;
45936;SDS011;31649;46.510;6.498;2022-07-04T08:53:18;5.88;;;2.00;;
45936;SDS011;31649;46.510;6.498;2022-07-04T08:55:45;3.10;;;1.92;;
45936;SDS011;31649;46.510;6.498;2022-07-04T08:58:30;2.38;;;2.17;;
45936;SDS011;31649;46.510;6.498;2022-07-04T09:03:26;4.15;;;2.20;;
45936;SDS011;31649;46.510;6.498;2022-07-04T09:05:52;3.53;;;2.03;;
45936;SDS011;31649;46.510;6.498;2022-07-04T09:08:19;4.03;;;2.45;;
45936;SDS011;31649;46.510;6.498;2022-07-04T09:10:44;4.10;;;2.22;;
45936;SDS011;31649;46.510;6.498;2022-07-04T09:13:11;4.63;;;2.00;;
45936;SDS011;31649;46.510;6.498;2022-07-04T09:15:37;7.57;;;2.47;;
45936;SDS011;31649;46.510;6.498;2022-07-04T09:18:04;7.07;;;2.67;;
45936;SDS011;31649;46.510;6.498;2022-07-04T09:20:30;3.45;;;2.20;;
45936;SDS011;31649;46.510;6.498;2022-07-04T09:22:57;6.47;;;2.53;;
45936;SDS011;31649;46.510;6.498;2022-07-04T09:25:24;4.85;;;2.20;;
45936;SDS011;31649;46.510;6.498;2022-07-04T09:27:59;8.95;;;2.80;;
45936;SDS011;31649;46.510;6.498;2022-07-04T09:30:26;3.90;;;2.17;;
45936;SDS011;31649;46.510;6.498;2022-07-04T09:32:56;4.30;;;2.55;;
45936;SDS011;31649;46.510;6.498;2022-07-04T09:35:26;4.13;;;2.45;;
45936;SDS011;31649;46.510;6.498;2022-07-04T09:37:54;4.65;;;2.25;;
45936;SDS011;31649;46.510;6.498;2022-07-04T09:40:28;5.13;;;2.75;;
45936;SDS011;31649;46.510;6.498;2022-07-04T09:42:58;6.88;;;2.65;;
45936;SDS011;31649;46.510;6.498;2022-07-04T09:45:25;4.50;;;2.60;;
45936;SDS011;31649;46.510;6.498;2022-07-04T09:47:53;4.53;;;2.38;;
45936;SDS011;31649;46.510;6.498;2022-07-04T09:50:20;6.00;;;2.45;;
45936;SDS011;31649;46.510;6.498;2022-07-04T09:52:54;4.18;;;2.80;;
45936;SDS011;31649;46.510;6.498;2022-07-04T09:55:32;4.85;;;2.05;;
45936;SDS011;31649;46.510;6.498;2022-07-04T09:58:00;3.70;;;2.45;;
45936;SDS011;31649;46.510;6.498;2022-07-04T10:00:27;3.63;;;2.70;;
45936;SDS011;31649;46.510;6.498;2022-07-04T10:02:55;4.63;;;2.60;;
45936;SDS011;31649;46.510;6.498;2022-07-04T10:05:22;3.42;;;2.72;;
45936;SDS011;31649;46.510;6.498;2022-07-04T10:07:50;3.70;;;2.70;;
45936;SDS011;31649;46.510;6.498;2022-07-04T10:10:23;7.15;;;3.25;;
45936;SDS011;31649;46.510;6.498;2022-07-04T10:12:54;5.45;;;2.53;;
45936;SDS011;31649;46.510;6.498;2022-07-04T10:15:24;4.30;;;2.60;;
45936;SDS011;31649;46.510;6.498;2022-07-04T10:17:50;6.25;;;2.63;;
45936;SDS011;31649;46.510;6.498;2022-07-04T10:20:16;4.32;;;2.88;;
45936;SDS011;31649;46.510;6.498;2022-07-04T10:22:41;2.63;;;2.40;;
45936;SDS011;31649;46.510;6.498;2022-07-04T10:25:07;4.15;;;2.88;;
45936;SDS011;31649;46.510;6.498;2022-07-04T10:27:34;3.58;;;2.38;;
45936;SDS011;31649;46.510;6.498;2022-07-04T10:30:01;4.75;;;2.45;;
45936;SDS011;31649;46.510;6.498;2022-07-04T10:32:28;5.68;;;2.70;;
45936;SDS011;31649;46.510;6.498;2022-07-04T10:34:55;5.20;;;2.78;;
45936;SDS011;31649;46.510;6.498;2022-07-04T10:37:20;3.08;;;2.25;;
45936;SDS011;31649;46.510;6.498;2022-07-04T10:39:46;4.47;;;2.75;;
45936;SDS011;31649;46.510;6.498;2022-07-04T10:42:24;5.78;;;3.00;;
45936;SDS011;31649;46.510;6.498;2022-07-04T10:44:50;5.72;;;2.67;;
45936;SDS011;31649;46.510;6.498;2022-07-04T10:47:21;4.18;;;2.85;;
45936;SDS011;31649;46.510;6.498;2022-07-04T10:49:49;6.05;;;2.97;;
45936;SDS011;31649;46.510;6.498;2022-07-04T10:52:15;4.22;;;2.75;;
45936;SDS011;31649;46.510;6.498;2022-07-04T10:54:41;6.68;;;3.25;;
45936;SDS011;31649;46.510;6.498;2022-07-04T10:59:37;4.25;;;2.50;;
45936;SDS011;31649;46.510;6.498;2022-07-04T11:20:30;3.35;;;2.33;;
45936;SDS011;31649;46.510;6.498;2022-07-04T11:23:07;5.78;;;2.70;;
45936;SDS011;31649;46.510;6.498;2022-07-04T11:25:34;6.50;;;2.53;;
45936;SDS011;31649;46.510;6.498;2022-07-04T11:30:51;3.22;;;2.28;;
45936;SDS011;31649;46.510;6.498;2022-07-04T11:33:21;9.68;;;2.13;;
45936;SDS011;31649;46.510;6.498;2022-07-04T11:36:04;6.10;;;2.70;;
45936;SDS011;31649;46.510;6.498;2022-07-04T11:41:18;12.32;;;3.25;;
45936;SDS011;31649;46.510;6.498;2022-07-04T11:44:07;4.80;;;2.45;;
45936;SDS011;31649;46.510;6.498;2022-07-04T11:47:02;6.28;;;2.80;;
45936;SDS011;31649;46.510;6.498;2022-07-04T11:49:28;3.90;;;2.05;;
45936;SDS011;31649;46.510;6.498;2022-07-04T11:51:53;5.85;;;2.28;;
45936;SDS011;31649;46.510;6.498;2022-07-04T11:54:20;4.93;;;3.05;;
45936;SDS011;31649;46.510;6.498;2022-07-04T11:56:46;2.20;;;2.00;;
45936;SDS011;31649;46.510;6.498;2022-07-04T11:59:12;3.95;;;2.35;;
45936;SDS011;31649;46.510;6.498;2022-07-04T12:01:40;2.83;;;1.80;;
45936;SDS011;31649;46.510;6.498;2022-07-04T12:04:14;4.32;;;2.38;;
45936;SDS011;31649;46.510;6.498;2022-07-04T12:06:44;4.03;;;2.08;;
45936;SDS011;31649;46.510;6.498;2022-07-04T12:09:11;4.03;;;1.65;;
45936;SDS011;31649;46.510;6.498;2022-07-04T12:11:50;1.77;;;1.25;;
45936;SDS011;31649;46.510;6.498;2022-07-04T12:14:20;1.20;;;1.10;;
45936;SDS011;31649;46.510;6.498;2022-07-04T12:16:45;1.92;;;1.17;;
45936;SDS011;31649;46.510;6.498;2022-07-04T12:19:12;3.20;;;1.75;;
45936;SDS011;31649;46.510;6.498;2022-07-04T12:21:37;1.60;;;1.33;;
45936;SDS011;31649;46.510;6.498;2022-07-04T12:24:03;1.23;;;1.08;;
45936;SDS011;31649;46.510;6.498;2022-07-04T12:26:32;2.47;;;1.30;;
45936;SDS011;31649;46.510;6.498;2022-07-04T12:28:59;1.83;;;1.65;;
45936;SDS011;31649;46.510;6.498;2022-07-04T12:31:37;4.07;;;1.60;;
45936;SDS011;31649;46.510;6.498;2022-07-04T12:34:16;10.02;;;2.15;;
45936;SDS011;31649;46.510;6.498;2022-07-04T12:36:51;1.85;;;1.20;;
45936;SDS011;31649;46.510;6.498;2022-07-04T12:39:34;5.05;;;1.80;;
45936;SDS011;31649;46.510;6.498;2022-07-04T12:42:03;1.75;;;1.42;;
45936;SDS011;31649;46.510;6.498;2022-07-04T12:44:28;1.65;;;1.27;;
45936;SDS011;31649;46.510;6.498;2022-07-04T12:46:55;4.43;;;1.48;;
45936;SDS011;31649;46.510;6.498;2022-07-04T12:49:22;1.90;;;1.48;;
45936;SDS011;31649;46.510;6.498;2022-07-04T12:51:47;2.22;;;1.42;;
45936;SDS011;31649;46.510;6.498;2022-07-04T12:54:12;2.97;;;1.42;;
45936;SDS011;31649;46.510;6.498;2022-07-04T12:56:41;3.95;;;1.63;;
45936;SDS011;31649;46.510;6.498;2022-07-04T12:59:15;2.65;;;1.52;;
45936;SDS011;31649;46.510;6.498;2022-07-04T13:01:43;2.65;;;1.40;;
45936;SDS011;31649;46.510;6.498;2022-07-04T13:04:10;3.47;;;1.58;;
45936;SDS011;31649;46.510;6.498;2022-07-04T13:06:36;1.55;;;1.45;;
45936;SDS011;31649;46.510;6.498;2022-07-04T13:09:03;3.92;;;1.55;;
45936;SDS011;31649;46.510;6.498;2022-07-04T13:11:29;1.73;;;1.45;;
45936;SDS011;31649;46.510;6.498;2022-07-04T13:14:14;1.58;;;1.30;;
45936;SDS011;31649;46.510;6.498;2022-07-04T13:16:39;3.38;;;1.35;;
45936;SDS011;31649;46.510;6.498;2022-07-04T13:19:04;5.20;;;1.67;;
45936;SDS011;31649;46.510;6.498;2022-07-04T13:21:30;2.90;;;1.40;;
45936;SDS011;31649;46.510;6.498;2022-07-04T13:23:55;5.13;;;2.38;;
45936;SDS011;31649;46.510;6.498;2022-07-04T13:26:21;2.85;;;1.90;;
45936;SDS011;31649;46.510;6.498;2022-07-04T13:28:46;4.97;;;1.55;;
45936;SDS011;31649;46.510;6.498;2022-07-04T13:31:12;3.33;;;0.98;;
45936;SDS011;31649;46.510;6.498;2022-07-04T13:33:37;3.05;;;1.98;;
45936;SDS011;31649;46.510;6.498;2022-07-04T13:36:02;1.75;;;1.10;;
45936;SDS011;31649;46.510;6.498;2022-07-04T13:38:28;4.65;;;1.70;;
45936;SDS011;31649;46.510;6.498;2022-07-04T13:40:54;3.50;;;1.33;;
45936;SDS011;31649;46.510;6.498;2022-07-04T13:43:22;3.25;;;1.40;;
45936;SDS011;31649;46.510;6.498;2022-07-04T13:45:47;4.00;;;1.40;;
45936;SDS011;31649;46.510;6.498;2022-07-04T13:48:14;3.22;;;1.65;;
45936;SDS011;31649;46.510;6.498;2022-07-04T13:50:39;1.75;;;1.30;;
45936;SDS011;31649;46.510;6.498;2022-07-04T13:53:05;3.42;;;1.35;;
45936;SDS011;31649;46.510;6.498;2022-07-04T13:55:31;2.22;;;1.23;;
45936;SDS011;31649;46.510;6.498;2022-07-04T13:57:57;2.30;;;1.23;;
45936;SDS011;31649;46.510;6.498;2022-07-04T14:00:23;2.67;;;1.45;;
45936;SDS011;31649;46.510;6.498;2022-07-04T14:02:49;3.30;;;1.48;;
45936;SDS011;31649;46.510;6.498;2022-07-04T14:05:14;3.75;;;1.40;;
45936;SDS011;31649;46.510;6.498;2022-07-04T14:07:40;3.28;;;1.63;;
45936;SDS011;31649;46.510;6.498;2022-07-04T14:10:06;1.67;;;1.10;;
45936;SDS011;31649;46.510;6.498;2022-07-04T14:12:31;3.13;;;1.45;;
45936;SDS011;31649;46.510;6.498;2022-07-04T14:14:56;2.83;;;1.48;;
45936;SDS011;31649;46.510;6.498;2022-07-04T14:17:22;2.63;;;1.90;;
45936;SDS011;31649;46.510;6.498;2022-07-04T14:19:47;1.92;;;1.08;;
45936;SDS011;31649;46.510;6.498;2022-07-04T14:22:13;4.43;;;1.23;;
45936;SDS011;31649;46.510;6.498;2022-07-04T14:24:38;1.20;;;0.90;;
45936;SDS011;31649;46.510;6.498;2022-07-04T14:27:03;2.97;;;1.42;;
45936;SDS011;31649;46.510;6.498;2022-07-04T14:29:29;1.42;;;1.05;;
45936;SDS011;31649;46.510;6.498;2022-07-04T14:31:54;1.80;;;1.10;;
45936;SDS011;31649;46.510;6.498;2022-07-04T14:34:20;1.77;;;1.15;;
45936;SDS011;31649;46.510;6.498;2022-07-04T14:36:45;2.20;;;1.30;;
45936;SDS011;31649;46.510;6.498;2022-07-04T14:39:10;1.88;;;1.23;;
45936;SDS011;31649;46.510;6.498;2022-07-04T14:41:36;3.35;;;1.33;;
45936;SDS011;31649;46.510;6.498;2022-07-04T14:44:01;4.63;;;1.35;;
45936;SDS011;31649;46.510;6.498;2022-07-04T14:46:27;3.90;;;1.50;;
45936;SDS011;31649;46.510;6.498;2022-07-04T14:48:53;2.17;;;1.23;;
45936;SDS011;31649;46.510;6.498;2022-07-04T14:51:20;1.40;;;1.08;;
45936;SDS011;31649;46.510;6.498;2022-07-04T14:53:45;1.20;;;1.10;;
45936;SDS011;31649;46.510;6.498;2022-07-04T14:56:11;3.75;;;1.23;;
45936;SDS011;31649;46.510;6.498;2022-07-04T14:58:36;5.10;;;2.17;;
45936;SDS011;31649;46.510;6.498;2022-07-04T15:01:01;2.88;;;1.15;;
45936;SDS011;31649;46.510;6.498;2022-07-04T15:03:27;2.88;;;1.55;;
45936;SDS011;31649;46.510;6.498;2022-07-04T15:05:52;3.78;;;1.50;;
45936;SDS011;31649;46.510;6.498;2022-07-04T15:08:18;3.15;;;1.33;;
45936;SDS011;31649;46.510;6.498;2022-07-04T15:10:43;3.45;;;1.73;;
45936;SDS011;31649;46.510;6.498;2022-07-04T15:13:08;2.72;;;2.05;;
45936;SDS011;31649;46.510;6.498;2022-07-04T15:15:34;2.08;;;1.65;;
45936;SDS011;31649;46.510;6.498;2022-07-04T15:17:59;3.17;;;1.55;;